sensor_id;sensor_type;location;lat;lon;timestamp;P1;durP1;ratioP1;P2;durP2;ratioP2
13366;SDS011;6752;52.612;13.630;2023-10-31T00:02:53;6.83;;;5.23;;
13366;SDS011;6752;52.612;13.630;2023-10-31T00:07:56;6.90;;;4.63;;
13366;SDS011;6752;52.612;13.630;2023-10-31T00:12:58;5.83;;;4.83;;
13366;SDS011;6752;52.612;13.630;2023-10-31T00:18:01;6.13;;;5.07;;
13366;SDS011;6752;52.612;13.630;2023-10-31T00:23:03;7.33;;;5.20;;
13366;SDS011;6752;52.612;13.630;2023-10-31T00:28:06;7.30;;;5.03;;
13366;SDS011;6752;52.612;13.630;2023-10-31T00:33:08;7.50;;;5.83;;
13366;SDS011;6752;52.612;13.630;2023-10-31T00:38:10;5.83;;;4.83;;
13366;SDS011;6752;52.612;13.630;2023-10-31T00:43:13;6.90;;;5.30;;
13366;SDS011;6752;52.612;13.630;2023-10-31T00:48:15;6.70;;;5.10;;
13366;SDS011;6752;52.612;13.630;2023-10-31T00:53:17;7.50;;;5.97;;
13366;SDS011;6752;52.612;13.630;2023-10-31T00:58:20;7.33;;;5.43;;
13366;SDS011;6752;52.612;13.630;2023-10-31T01:03:22;8.33;;;5.83;;
13366;SDS011;6752;52.612;13.630;2023-10-31T01:08:24;8.63;;;6.27;;
13366;SDS011;6752;52.612;13.630;2023-10-31T01:13:27;6.83;;;5.60;;
13366;SDS011;6752;52.612;13.630;2023-10-31T01:18:29;6.70;;;5.57;;
13366;SDS011;6752;52.612;13.630;2023-10-31T01:23:31;7.50;;;5.60;;
13366;SDS011;6752;52.612;13.630;2023-10-31T01:28:34;6.27;;;5.20;;
13366;SDS011;6752;52.612;13.630;2023-10-31T01:33:36;6.67;;;5.13;;
13366;SDS011;6752;52.612;13.630;2023-10-31T01:38:39;6.77;;;4.97;;
13366;SDS011;6752;52.612;13.630;2023-10-31T01:43:41;6.50;;;5.17;;
13366;SDS011;6752;52.612;13.630;2023-10-31T01:48:43;7.67;;;5.57;;
13366;SDS011;6752;52.612;13.630;2023-10-31T01:53:46;7.87;;;6.57;;
13366;SDS011;6752;52.612;13.630;2023-10-31T01:58:48;7.17;;;6.40;;
13366;SDS011;6752;52.612;13.630;2023-10-31T02:03:50;6.57;;;5.47;;
13366;SDS011;6752;52.612;13.630;2023-10-31T02:08:53;6.70;;;5.90;;
13366;SDS011;6752;52.612;13.630;2023-10-31T02:13:55;7.23;;;5.77;;
13366;SDS011;6752;52.612;13.630;2023-10-31T02:18:58;9.27;;;6.30;;
13366;SDS011;6752;52.612;13.630;2023-10-31T02:24:01;8.27;;;6.57;;
13366;SDS011;6752;52.612;13.630;2023-10-31T02:29:03;7.20;;;6.07;;
13366;SDS011;6752;52.612;13.630;2023-10-31T02:34:05;7.50;;;6.23;;
13366;SDS011;6752;52.612;13.630;2023-10-31T02:39:07;8.50;;;6.70;;
13366;SDS011;6752;52.612;13.630;2023-10-31T02:44:10;8.20;;;6.47;;
13366;SDS011;6752;52.612;13.630;2023-10-31T02:49:12;7.67;;;6.10;;
13366;SDS011;6752;52.612;13.630;2023-10-31T02:54:14;8.80;;;7.17;;
13366;SDS011;6752;52.612;13.630;2023-10-31T02:59:17;8.00;;;6.50;;
13366;SDS011;6752;52.612;13.630;2023-10-31T03:04:19;9.43;;;6.60;;
13366;SDS011;6752;52.612;13.630;2023-10-31T03:09:21;9.17;;;7.40;;
13366;SDS011;6752;52.612;13.630;2023-10-31T03:14:24;8.83;;;6.63;;
13366;SDS011;6752;52.612;13.630;2023-10-31T03:19:26;7.13;;;6.33;;
13366;SDS011;6752;52.612;13.630;2023-10-31T03:24:28;8.97;;;6.63;;
13366;SDS011;6752;52.612;13.630;2023-10-31T03:29:31;8.90;;;8.00;;
13366;SDS011;6752;52.612;13.630;2023-10-31T03:34:33;8.63;;;7.30;;
13366;SDS011;6752;52.612;13.630;2023-10-31T03:39:35;10.07;;;7.77;;
13366;SDS011;6752;52.612;13.630;2023-10-31T03:44:38;9.77;;;7.33;;
13366;SDS011;6752;52.612;13.630;2023-10-31T03:49:40;7.23;;;6.53;;
13366;SDS011;6752;52.612;13.630;2023-10-31T03:54:43;7.97;;;6.27;;
13366;SDS011;6752;52.612;13.630;2023-10-31T03:59:45;8.93;;;6.77;;
13366;SDS011;6752;52.612;13.630;2023-10-31T04:04:47;8.20;;;7.40;;
13366;SDS011;6752;52.612;13.630;2023-10-31T04:09:50;8.77;;;6.90;;
13366;SDS011;6752;52.612;13.630;2023-10-31T04:14:52;7.90;;;7.10;;
13366;SDS011;6752;52.612;13.630;2023-10-31T04:19:54;8.73;;;7.83;;
13366;SDS011;6752;52.612;13.630;2023-10-31T04:24:57;9.17;;;7.60;;
13366;SDS011;6752;52.612;13.630;2023-10-31T04:29:59;9.90;;;8.93;;
13366;SDS011;6752;52.612;13.630;2023-10-31T04:35:01;10.07;;;9.03;;
13366;SDS011;6752;52.612;13.630;2023-10-31T04:40:04;11.63;;;10.43;;
13366;SDS011;6752;52.612;13.630;2023-10-31T04:45:06;11.33;;;10.30;;
13366;SDS011;6752;52.612;13.630;2023-10-31T04:50:09;10.93;;;9.83;;
13366;SDS011;6752;52.612;13.630;2023-10-31T04:55:11;11.20;;;10.00;;
13366;SDS011;6752;52.612;13.630;2023-10-31T05:00:13;11.23;;;9.43;;
13366;SDS011;6752;52.612;13.630;2023-10-31T05:05:16;9.47;;;8.57;;
13366;SDS011;6752;52.612;13.630;2023-10-31T05:10:18;12.20;;;9.90;;
13366;SDS011;6752;52.612;13.630;2023-10-31T05:15:20;10.67;;;9.60;;
13366;SDS011;6752;52.612;13.630;2023-10-31T05:20:23;11.67;;;10.43;;
13366;SDS011;6752;52.612;13.630;2023-10-31T05:25:25;12.00;;;10.83;;
13366;SDS011;6752;52.612;13.630;2023-10-31T05:30:28;11.90;;;10.77;;
13366;SDS011;6752;52.612;13.630;2023-10-31T05:35:30;12.47;;;11.37;;
13366;SDS011;6752;52.612;13.630;2023-10-31T05:40:32;11.77;;;10.07;;
13366;SDS011;6752;52.612;13.630;2023-10-31T05:45:35;10.73;;;9.63;;
13366;SDS011;6752;52.612;13.630;2023-10-31T05:50:37;12.33;;;10.07;;
13366;SDS011;6752;52.612;13.630;2023-10-31T05:55:39;10.13;;;9.03;;
13366;SDS011;6752;52.612;13.630;2023-10-31T06:00:42;9.50;;;8.60;;
13366;SDS011;6752;52.612;13.630;2023-10-31T06:05:44;7.00;;;6.30;;
13366;SDS011;6752;52.612;13.630;2023-10-31T06:10:46;7.50;;;6.50;;
13366;SDS011;6752;52.612;13.630;2023-10-31T06:15:49;7.37;;;6.67;;
13366;SDS011;6752;52.612;13.630;2023-10-31T06:20:51;7.13;;;6.53;;
13366;SDS011;6752;52.612;13.630;2023-10-31T06:25:53;6.33;;;5.73;;
13366;SDS011;6752;52.612;13.630;2023-10-31T06:30:56;7.83;;;5.63;;
13366;SDS011;6752;52.612;13.630;2023-10-31T06:35:58;6.83;;;6.13;;
13366;SDS011;6752;52.612;13.630;2023-10-31T06:41:09;8.23;;;7.17;;
13366;SDS011;6752;52.612;13.630;2023-10-31T06:46:11;12.10;;;10.90;;
13366;SDS011;6752;52.612;13.630;2023-10-31T06:51:14;9.63;;;8.63;;
13366;SDS011;6752;52.612;13.630;2023-10-31T06:56:16;10.90;;;9.70;;
13366;SDS011;6752;52.612;13.630;2023-10-31T07:01:18;13.93;;;11.17;;
13366;SDS011;6752;52.612;13.630;2023-10-31T07:06:21;10.67;;;9.47;;
13366;SDS011;6752;52.612;13.630;2023-10-31T07:11:23;10.27;;;9.27;;
13366;SDS011;6752;52.612;13.630;2023-10-31T07:16:25;10.00;;;9.10;;
13366;SDS011;6752;52.612;13.630;2023-10-31T07:21:28;8.03;;;7.23;;
13366;SDS011;6752;52.612;13.630;2023-10-31T07:26:30;8.20;;;7.00;;
13366;SDS011;6752;52.612;13.630;2023-10-31T07:31:32;7.83;;;7.03;;
13366;SDS011;6752;52.612;13.630;2023-10-31T07:36:35;6.63;;;6.00;;
13366;SDS011;6752;52.612;13.630;2023-10-31T07:41:37;3.57;;;3.10;;
13366;SDS011;6752;52.612;13.630;2023-10-31T07:46:39;3.80;;;3.30;;
13366;SDS011;6752;52.612;13.630;2023-10-31T07:51:42;4.57;;;3.50;;
13366;SDS011;6752;52.612;13.630;2023-10-31T07:56:44;3.13;;;2.83;;
13366;SDS011;6752;52.612;13.630;2023-10-31T08:01:46;3.60;;;3.10;;
13366;SDS011;6752;52.612;13.630;2023-10-31T08:06:49;3.43;;;3.13;;
13366;SDS011;6752;52.612;13.630;2023-10-31T08:11:51;3.60;;;2.80;;
13366;SDS011;6752;52.612;13.630;2023-10-31T08:16:54;2.90;;;2.57;;
13366;SDS011;6752;52.612;13.630;2023-10-31T08:21:56;2.60;;;2.40;;
13366;SDS011;6752;52.612;13.630;2023-10-31T08:26:58;3.53;;;2.53;;
13366;SDS011;6752;52.612;13.630;2023-10-31T08:32:01;2.50;;;1.77;;
13366;SDS011;6752;52.612;13.630;2023-10-31T08:37:03;2.10;;;1.30;;
13366;SDS011;6752;52.612;13.630;2023-10-31T08:42:05;0.90;;;0.90;;
13366;SDS011;6752;52.612;13.630;2023-10-31T08:47:08;1.40;;;1.30;;
13366;SDS011;6752;52.612;13.630;2023-10-31T08:52:10;1.83;;;1.40;;
13366;SDS011;6752;52.612;13.630;2023-10-31T08:57:12;1.40;;;1.30;;
13366;SDS011;6752;52.612;13.630;2023-10-31T09:02:15;1.30;;;1.20;;
13366;SDS011;6752;52.612;13.630;2023-10-31T09:07:17;1.27;;;1.10;;
13366;SDS011;6752;52.612;13.630;2023-10-31T09:12:19;0.90;;;0.90;;
13366;SDS011;6752;52.612;13.630;2023-10-31T09:17:22;1.57;;;1.20;;
13366;SDS011;6752;52.612;13.630;2023-10-31T09:22:24;1.20;;;1.10;;
13366;SDS011;6752;52.612;13.630;2023-10-31T09:27:27;1.53;;;0.83;;
13366;SDS011;6752;52.612;13.630;2023-10-31T09:32:29;2.93;;;1.00;;
13366;SDS011;6752;52.612;13.630;2023-10-31T09:37:31;1.20;;;0.93;;
13366;SDS011;6752;52.612;13.630;2023-10-31T09:42:34;1.43;;;1.10;;
13366;SDS011;6752;52.612;13.630;2023-10-31T09:47:36;1.80;;;0.77;;
13366;SDS011;6752;52.612;13.630;2023-10-31T09:52:38;1.13;;;0.70;;
13366;SDS011;6752;52.612;13.630;2023-10-31T09:57:41;0.57;;;0.50;;
13366;SDS011;6752;52.612;13.630;2023-10-31T10:02:43;1.10;;;0.77;;
13366;SDS011;6752;52.612;13.630;2023-10-31T10:07:45;0.60;;;0.60;;
13366;SDS011;6752;52.612;13.630;2023-10-31T10:12:48;2.13;;;0.90;;
13366;SDS011;6752;52.612;13.630;2023-10-31T10:17:54;1.43;;;0.90;;
13366;SDS011;6752;52.612;13.630;2023-10-31T10:22:52;1.13;;;0.83;;
13366;SDS011;6752;52.612;13.630;2023-10-31T10:27:55;1.53;;;1.27;;
13366;SDS011;6752;52.612;13.630;2023-10-31T10:32:57;1.43;;;1.20;;
13366;SDS011;6752;52.612;13.630;2023-10-31T10:37:59;2.17;;;1.30;;
13366;SDS011;6752;52.612;13.630;2023-10-31T10:43:02;5.43;;;4.50;;
13366;SDS011;6752;52.612;13.630;2023-10-31T10:48:05;2.77;;;2.37;;
13366;SDS011;6752;52.612;13.630;2023-10-31T10:53:12;1.90;;;1.37;;
13366;SDS011;6752;52.612;13.630;2023-10-31T10:58:26;1.30;;;1.20;;
13366;SDS011;6752;52.612;13.630;2023-10-31T11:03:14;1.33;;;1.23;;
13366;SDS011;6752;52.612;13.630;2023-10-31T11:08:16;4.93;;;2.90;;
13366;SDS011;6752;52.612;13.630;2023-10-31T11:13:19;3.10;;;1.90;;
13366;SDS011;6752;52.612;13.630;2023-10-31T11:18:21;3.50;;;3.10;;
13366;SDS011;6752;52.612;13.630;2023-10-31T11:23:23;2.87;;;2.57;;
13366;SDS011;6752;52.612;13.630;2023-10-31T11:28:26;2.30;;;2.10;;
13366;SDS011;6752;52.612;13.630;2023-10-31T11:33:28;3.50;;;2.40;;
13366;SDS011;6752;52.612;13.630;2023-10-31T11:38:31;2.83;;;1.87;;
13366;SDS011;6752;52.612;13.630;2023-10-31T11:43:36;2.37;;;2.17;;
13366;SDS011;6752;52.612;13.630;2023-10-31T11:48:51;2.53;;;2.20;;
13366;SDS011;6752;52.612;13.630;2023-10-31T11:53:49;2.77;;;2.03;;
13366;SDS011;6752;52.612;13.630;2023-10-31T11:59:01;2.20;;;2.00;;
13366;SDS011;6752;52.612;13.630;2023-10-31T12:03:57;2.37;;;1.87;;
13366;SDS011;6752;52.612;13.630;2023-10-31T12:09:00;1.80;;;1.70;;
13366;SDS011;6752;52.612;13.630;2023-10-31T12:14:02;2.17;;;1.97;;
13366;SDS011;6752;52.612;13.630;2023-10-31T12:19:07;1.83;;;1.60;;
13366;SDS011;6752;52.612;13.630;2023-10-31T12:24:10;1.50;;;1.40;;
13366;SDS011;6752;52.612;13.630;2023-10-31T12:29:18;1.57;;;1.40;;
13366;SDS011;6752;52.612;13.630;2023-10-31T12:34:21;1.63;;;1.40;;
13366;SDS011;6752;52.612;13.630;2023-10-31T12:39:23;1.50;;;1.30;;
13366;SDS011;6752;52.612;13.630;2023-10-31T12:44:25;1.40;;;1.30;;
13366;SDS011;6752;52.612;13.630;2023-10-31T12:49:27;1.20;;;1.10;;
13366;SDS011;6752;52.612;13.630;2023-10-31T12:54:30;0.80;;;0.80;;
13366;SDS011;6752;52.612;13.630;2023-10-31T12:59:35;1.90;;;0.90;;
13366;SDS011;6752;52.612;13.630;2023-10-31T13:04:36;0.70;;;0.70;;
13366;SDS011;6752;52.612;13.630;2023-10-31T13:09:39;1.63;;;1.13;;
13366;SDS011;6752;52.612;13.630;2023-10-31T13:14:41;0.97;;;0.73;;
13366;SDS011;6752;52.612;13.630;2023-10-31T13:19:43;1.33;;;0.80;;
13366;SDS011;6752;52.612;13.630;2023-10-31T13:24:46;0.70;;;0.70;;
13366;SDS011;6752;52.612;13.630;2023-10-31T13:29:48;1.33;;;0.80;;
13366;SDS011;6752;52.612;13.630;2023-10-31T13:34:50;1.20;;;0.70;;
13366;SDS011;6752;52.612;13.630;2023-10-31T13:39:53;0.80;;;0.70;;
13366;SDS011;6752;52.612;13.630;2023-10-31T13:44:55;0.70;;;0.70;;
13366;SDS011;6752;52.612;13.630;2023-10-31T13:49:58;1.40;;;0.80;;
13366;SDS011;6752;52.612;13.630;2023-10-31T13:55:00;2.70;;;0.90;;
13366;SDS011;6752;52.612;13.630;2023-10-31T14:00:02;1.97;;;0.70;;
13366;SDS011;6752;52.612;13.630;2023-10-31T14:05:08;3.60;;;0.93;;
13366;SDS011;6752;52.612;13.630;2023-10-31T14:10:10;8.00;;;7.40;;
13366;SDS011;6752;52.612;13.630;2023-10-31T14:15:12;2.80;;;1.37;;
13366;SDS011;6752;52.612;13.630;2023-10-31T14:20:15;2.30;;;1.50;;
13366;SDS011;6752;52.612;13.630;2023-10-31T14:25:17;5.77;;;2.80;;
13366;SDS011;6752;52.612;13.630;2023-10-31T14:30:19;3.33;;;1.70;;
13366;SDS011;6752;52.612;13.630;2023-10-31T14:35:22;1.80;;;1.47;;
13366;SDS011;6752;52.612;13.630;2023-10-31T14:40:24;2.17;;;1.20;;
13366;SDS011;6752;52.612;13.630;2023-10-31T14:45:26;2.10;;;1.50;;
13366;SDS011;6752;52.612;13.630;2023-10-31T14:50:29;2.17;;;1.20;;
13366;SDS011;6752;52.612;13.630;2023-10-31T14:55:31;3.90;;;1.60;;
13366;SDS011;6752;52.612;13.630;2023-10-31T15:00:34;2.17;;;1.30;;
13366;SDS011;6752;52.612;13.630;2023-10-31T15:05:36;4.13;;;1.70;;
13366;SDS011;6752;52.612;13.630;2023-10-31T15:10:38;1.13;;;0.67;;
13366;SDS011;6752;52.612;13.630;2023-10-31T15:15:41;3.90;;;2.13;;
13366;SDS011;6752;52.612;13.630;2023-10-31T15:20:43;3.22;;;2.08;;
13366;SDS011;6752;52.612;13.630;2023-10-31T15:25:45;3.17;;;1.80;;
13366;SDS011;6752;52.612;13.630;2023-10-31T15:30:48;6.50;;;2.83;;
13366;SDS011;6752;52.612;13.630;2023-10-31T15:35:50;1.93;;;1.47;;
13366;SDS011;6752;52.612;13.630;2023-10-31T15:40:52;2.13;;;1.60;;
13366;SDS011;6752;52.612;13.630;2023-10-31T15:45:55;1.13;;;1.00;;
13366;SDS011;6752;52.612;13.630;2023-10-31T15:50:57;3.57;;;2.13;;
13366;SDS011;6752;52.612;13.630;2023-10-31T15:56:00;1.37;;;1.27;;
13366;SDS011;6752;52.612;13.630;2023-10-31T16:01:02;1.67;;;1.40;;
13366;SDS011;6752;52.612;13.630;2023-10-31T16:06:04;2.07;;;1.43;;
13366;SDS011;6752;52.612;13.630;2023-10-31T16:11:07;3.10;;;1.40;;
13366;SDS011;6752;52.612;13.630;2023-10-31T16:16:10;5.57;;;2.00;;
13366;SDS011;6752;52.612;13.630;2023-10-31T16:21:18;4.10;;;2.33;;
13366;SDS011;6752;52.612;13.630;2023-10-31T16:26:19;5.33;;;3.30;;
13366;SDS011;6752;52.612;13.630;2023-10-31T16:31:23;3.57;;;2.40;;
13366;SDS011;6752;52.612;13.630;2023-10-31T16:36:24;2.17;;;1.97;;
13366;SDS011;6752;52.612;13.630;2023-10-31T16:41:26;1.90;;;1.60;;
13366;SDS011;6752;52.612;13.630;2023-10-31T16:46:29;2.23;;;1.90;;
13366;SDS011;6752;52.612;13.630;2023-10-31T16:51:31;2.33;;;1.80;;
13366;SDS011;6752;52.612;13.630;2023-10-31T16:56:34;2.57;;;2.07;;
13366;SDS011;6752;52.612;13.630;2023-10-31T17:01:36;2.23;;;2.03;;
13366;SDS011;6752;52.612;13.630;2023-10-31T17:06:38;2.70;;;2.40;;
13366;SDS011;6752;52.612;13.630;2023-10-31T17:11:41;2.90;;;2.17;;
13366;SDS011;6752;52.612;13.630;2023-10-31T17:16:43;2.47;;;1.93;;
13366;SDS011;6752;52.612;13.630;2023-10-31T17:21:45;3.07;;;2.00;;
13366;SDS011;6752;52.612;13.630;2023-10-31T17:26:48;3.87;;;2.90;;
13366;SDS011;6752;52.612;13.630;2023-10-31T17:31:50;5.17;;;4.67;;
13366;SDS011;6752;52.612;13.630;2023-10-31T17:36:52;3.90;;;3.40;;
13366;SDS011;6752;52.612;13.630;2023-10-31T17:41:55;2.83;;;2.53;;
13366;SDS011;6752;52.612;13.630;2023-10-31T17:46:57;3.33;;;2.70;;
13366;SDS011;6752;52.612;13.630;2023-10-31T17:51:59;2.87;;;2.55;;
13366;SDS011;6752;52.612;13.630;2023-10-31T17:57:02;3.97;;;2.72;;
13366;SDS011;6752;52.612;13.630;2023-10-31T18:02:04;3.17;;;2.87;;
13366;SDS011;6752;52.612;13.630;2023-10-31T18:07:07;8.47;;;4.40;;
13366;SDS011;6752;52.612;13.630;2023-10-31T18:12:09;6.80;;;4.57;;
13366;SDS011;6752;52.612;13.630;2023-10-31T18:17:11;7.07;;;4.90;;
13366;SDS011;6752;52.612;13.630;2023-10-31T18:22:14;14.77;;;11.70;;
13366;SDS011;6752;52.612;13.630;2023-10-31T18:27:16;4.20;;;3.80;;
13366;SDS011;6752;52.612;13.630;2023-10-31T18:32:18;5.07;;;4.10;;
13366;SDS011;6752;52.612;13.630;2023-10-31T18:37:21;5.87;;;4.50;;
13366;SDS011;6752;52.612;13.630;2023-10-31T18:42:23;7.60;;;5.97;;
13366;SDS011;6752;52.612;13.630;2023-10-31T18:47:25;4.70;;;3.70;;
13366;SDS011;6752;52.612;13.630;2023-10-31T18:52:28;4.93;;;3.30;;
13366;SDS011;6752;52.612;13.630;2023-10-31T18:57:30;3.83;;;2.70;;
13366;SDS011;6752;52.612;13.630;2023-10-31T19:02:33;3.10;;;2.77;;
13366;SDS011;6752;52.612;13.630;2023-10-31T19:07:35;2.57;;;1.93;;
13366;SDS011;6752;52.612;13.630;2023-10-31T19:12:37;2.87;;;2.10;;
13366;SDS011;6752;52.612;13.630;2023-10-31T19:17:39;2.08;;;1.60;;
13366;SDS011;6752;52.612;13.630;2023-10-31T19:22:42;2.37;;;1.20;;
13366;SDS011;6752;52.612;13.630;2023-10-31T19:27:44;1.40;;;1.30;;
13366;SDS011;6752;52.612;13.630;2023-10-31T19:32:47;1.80;;;1.30;;
13366;SDS011;6752;52.612;13.630;2023-10-31T19:37:49;2.43;;;1.60;;
13366;SDS011;6752;52.612;13.630;2023-10-31T19:42:51;2.83;;;1.10;;
13366;SDS011;6752;52.612;13.630;2023-10-31T19:47:54;1.40;;;0.80;;
13366;SDS011;6752;52.612;13.630;2023-10-31T19:52:56;0.77;;;0.60;;
13366;SDS011;6752;52.612;13.630;2023-10-31T19:57:58;0.60;;;0.60;;
13366;SDS011;6752;52.612;13.630;2023-10-31T20:03:01;0.53;;;0.50;;
13366;SDS011;6752;52.612;13.630;2023-10-31T20:08:03;1.10;;;0.40;;
13366;SDS011;6752;52.612;13.630;2023-10-31T20:13:05;1.20;;;0.60;;
13366;SDS011;6752;52.612;13.630;2023-10-31T20:18:08;0.60;;;0.30;;
13366;SDS011;6752;52.612;13.630;2023-10-31T20:23:10;0.50;;;0.50;;
13366;SDS011;6752;52.612;13.630;2023-10-31T20:28:12;2.60;;;0.50;;
13366;SDS011;6752;52.612;13.630;2023-10-31T20:33:15;2.37;;;0.77;;
13366;SDS011;6752;52.612;13.630;2023-10-31T20:38:17;2.03;;;0.50;;
13366;SDS011;6752;52.612;13.630;2023-10-31T20:43:20;1.77;;;0.67;;
13366;SDS011;6752;52.612;13.630;2023-10-31T20:48:22;0.43;;;0.43;;
13366;SDS011;6752;52.612;13.630;2023-10-31T20:53:25;0.90;;;0.40;;
13366;SDS011;6752;52.612;13.630;2023-10-31T20:58:27;1.23;;;0.70;;
13366;SDS011;6752;52.612;13.630;2023-10-31T21:03:30;1.67;;;0.60;;
13366;SDS011;6752;52.612;13.630;2023-10-31T21:08:32;1.67;;;0.73;;
13366;SDS011;6752;52.612;13.630;2023-10-31T21:13:34;1.45;;;0.90;;
13366;SDS011;6752;52.612;13.630;2023-10-31T21:18:37;0.90;;;0.70;;
13366;SDS011;6752;52.612;13.630;2023-10-31T21:23:39;1.90;;;0.77;;
13366;SDS011;6752;52.612;13.630;2023-10-31T21:28:41;2.43;;;0.70;;
13366;SDS011;6752;52.612;13.630;2023-10-31T21:33:44;1.30;;;0.50;;
13366;SDS011;6752;52.612;13.630;2023-10-31T21:38:46;1.10;;;0.60;;
13366;SDS011;6752;52.612;13.630;2023-10-31T21:43:48;2.73;;;0.73;;
13366;SDS011;6752;52.612;13.630;2023-10-31T21:48:51;1.27;;;0.57;;
13366;SDS011;6752;52.612;13.630;2023-10-31T21:53:53;2.20;;;0.67;;
13366;SDS011;6752;52.612;13.630;2023-10-31T21:58:55;1.53;;;0.50;;
13366;SDS011;6752;52.612;13.630;2023-10-31T22:03:58;0.87;;;0.40;;
13366;SDS011;6752;52.612;13.630;2023-10-31T22:09:00;0.70;;;0.50;;
13366;SDS011;6752;52.612;13.630;2023-10-31T22:14:03;1.03;;;0.63;;
13366;SDS011;6752;52.612;13.630;2023-10-31T22:19:05;2.03;;;0.60;;
13366;SDS011;6752;52.612;13.630;2023-10-31T22:24:07;2.00;;;0.90;;
13366;SDS011;6752;52.612;13.630;2023-10-31T22:29:10;1.53;;;0.70;;
13366;SDS011;6752;52.612;13.630;2023-10-31T22:34:12;0.73;;;0.60;;
13366;SDS011;6752;52.612;13.630;2023-10-31T22:39:14;1.47;;;0.67;;
13366;SDS011;6752;52.612;13.630;2023-10-31T22:44:17;2.37;;;0.90;;
13366;SDS011;6752;52.612;13.630;2023-10-31T22:49:19;0.70;;;0.70;;
13366;SDS011;6752;52.612;13.630;2023-10-31T22:54:21;1.80;;;0.87;;
13366;SDS011;6752;52.612;13.630;2023-10-31T22:59:24;2.37;;;1.10;;
13366;SDS011;6752;52.612;13.630;2023-10-31T23:04:26;1.67;;;0.90;;
13366;SDS011;6752;52.612;13.630;2023-10-31T23:09:28;2.60;;;0.95;;
13366;SDS011;6752;52.612;13.630;2023-10-31T23:14:31;0.90;;;0.70;;
13366;SDS011;6752;52.612;13.630;2023-10-31T23:19:33;1.63;;;0.60;;
13366;SDS011;6752;52.612;13.630;2023-10-31T23:24:35;3.40;;;0.90;;
13366;SDS011;6752;52.612;13.630;2023-10-31T23:29:38;1.47;;;0.80;;
13366;SDS011;6752;52.612;13.630;2023-10-31T23:34:40;1.03;;;0.50;;
13366;SDS011;6752;52.612;13.630;2023-10-31T23:39:43;0.93;;;0.60;;
13366;SDS011;6752;52.612;13.630;2023-10-31T23:44:45;1.67;;;0.80;;
13366;SDS011;6752;52.612;13.630;2023-10-31T23:49:47;1.43;;;0.60;;
13366;SDS011;6752;52.612;13.630;2023-10-31T23:54:50;2.47;;;0.90;;
13366;SDS011;6752;52.612;13.630;2023-10-31T23:59:52;1.37;;;0.80;;
